Time;durP1;ratioP1;P1;durP2;ratioP2;P2;SDS_P1;SDS_P2;PMS_P1;PMS_P2;Temp;Humidity;BMP_temperature;BMP_pressure;BME280_temperature;BME280_humidity;BME280_pressure;Samples;Min_cycle;Max_cycle;Signal;HPM_P1;HPM_P2
2022/05/02 00:02:17;;;;;;;;;;;12.70;45.70;;;;;;2347783;54;20181;-73
2022/05/02 00:04:43;;;;;;;;;;;12.60;45.70;;;;;;2366889;53;20062;-73
2022/05/02 00:07:10;;;;;;;;;;;12.50;45.60;;;;;;2373862;52;20098;-73
2022/05/02 00:09:36;;;;;;;;;;;12.60;45.80;;;;;;2348519;54;20323;-74
2022/05/02 00:12:03;;;;;;;;;;;12.50;45.80;;;;;;2358623;53;20641;-73
2022/05/02 00:14:29;;;;;;;;;;;12.50;45.90;;;;;;2355079;53;20070;-73
2022/05/02 00:16:56;;;;;;;;;;;12.50;45.90;;;;;;2389804;53;20684;-73
2022/05/02 00:19:24;;;;;;;;;;;12.40;45.90;;;;;;2334238;53;20193;-73
2022/05/02 00:21:50;;;;;;;;;;;12.40;45.90;;;;;;2348103;54;20059;-73
2022/05/02 00:24:18;;;;;;;;;;;12.40;45.90;;;;;;2362963;53;20613;-73
2022/05/02 00:26:44;;;;;;;;;;;12.40;46.00;;;;;;2348124;54;20067;-73
2022/05/02 00:29:10;;;;;;;;;;;12.30;46.00;;;;;;2348178;53;20063;-73
2022/05/02 00:31:37;;;;;;;;;;;12.30;46.00;;;;;;2503889;52;20083;-73
2022/05/02 00:34:03;;;;;;;;;;;12.30;46.10;;;;;;2349551;53;20400;-74
2022/05/02 00:36:30;;;;;;;;;;;12.20;46.10;;;;;;2347467;54;20086;-73
2022/05/02 00:38:56;;;;;;;;;;;12.20;46.10;;;;;;2424200;53;20071;-73
2022/05/02 00:41:23;;;;;;;;;;;12.20;46.10;;;;;;2350758;53;20226;-73
2022/05/02 00:43:50;;;;;;;;;;;12.10;46.10;;;;;;2344722;53;20117;-73
2022/05/02 00:46:17;;;;;;;;;;;12.20;46.20;;;;;;2344690;54;20055;-73
2022/05/02 00:48:44;;;;;;;;;;;12.10;46.20;;;;;;2348374;54;20139;-73
2022/05/02 00:51:10;;;;;;;;;;;12.10;46.30;;;;;;2585621;53;20178;-73
2022/05/02 00:53:36;;;;;;;;;;;12.00;46.20;;;;;;2342714;53;20105;-73
2022/05/02 00:56:03;;;;;;;;;;;12.00;46.20;;;;;;2347468;54;20130;-72
2022/05/02 00:58:29;;;;;;;;;;;12.00;46.30;;;;;;2588975;53;20139;-74
2022/05/02 01:00:55;;;;;;;;;;;12.00;46.30;;;;;;2349109;53;20086;-73
2022/05/02 01:03:25;;;;;;;;;;;11.90;46.30;;;;;;2347698;53;20133;-73
2022/05/02 01:08:35;;;;;;;;;;;11.90;46.40;;;;;;2329822;54;20135;-74
2022/05/02 01:11:02;;;;;;;;;;;11.90;46.40;;;;;;2375745;52;20070;-73
2022/05/02 01:13:47;;;;;;;;;;;11.80;46.40;;;;;;2351559;53;20133;-74
2022/05/02 01:16:17;;;;;;;;;;;11.80;46.40;;;;;;2348279;54;20127;-73
2022/05/02 01:18:44;;;;;;;;;;;11.80;46.80;;;;;;2346952;54;20138;-74
2022/05/02 01:21:16;;;;;;;;;;;11.80;46.50;;;;;;2347436;54;20114;-73
2022/05/02 01:23:43;;;;;;;;;;;11.70;46.40;;;;;;2502382;53;20442;-73
2022/05/02 01:26:11;;;;;;;;;;;11.70;46.50;;;;;;2441299;53;20059;-73
2022/05/02 01:28:56;;;;;;;;;;;11.70;46.50;;;;;;2402655;53;20730;-73
2022/05/02 01:31:23;;;;;;;;;;;11.70;46.60;;;;;;2371773;53;20127;-73
2022/05/02 01:33:49;;;;;;;;;;;11.60;46.50;;;;;;2348114;54;20082;-74
2022/05/02 01:36:16;;;;;;;;;;;11.60;47.10;;;;;;2435863;53;20139;-73
2022/05/02 01:38:43;;;;;;;;;;;11.60;46.60;;;;;;2352143;53;20126;-73
2022/05/02 01:41:10;;;;;;;;;;;11.50;46.60;;;;;;2348041;54;20386;-73
2022/05/02 01:43:37;;;;;;;;;;;11.50;46.60;;;;;;2348149;54;20413;-73
2022/05/02 01:46:03;;;;;;;;;;;11.50;46.60;;;;;;2427202;53;21285;-73
2022/05/02 01:48:29;;;;;;;;;;;11.40;46.60;;;;;;2347988;54;20066;-73
2022/05/02 01:50:58;;;;;;;;;;;11.40;46.70;;;;;;2347788;54;20138;-73
2022/05/02 01:53:24;;;;;;;;;;;11.40;46.70;;;;;;2348027;54;20450;-73
2022/05/02 01:55:50;;;;;;;;;;;11.40;46.80;;;;;;2351957;54;20074;-74
2022/05/02 01:58:17;;;;;;;;;;;11.30;46.70;;;;;;2509404;53;20076;-73
2022/05/02 02:00:43;;;;;;;;;;;11.30;46.80;;;;;;2369730;53;20076;-73
2022/05/02 02:03:09;;;;;;;;;;;11.30;46.80;;;;;;2356977;53;20138;-73
2022/05/02 02:05:51;;;;;;;;;;;11.30;46.80;;;;;;2627187;52;20219;-73
2022/05/02 02:08:20;;;;;;;;;;;11.20;46.80;;;;;;2496894;52;20108;-73
2022/05/02 02:10:48;;;;;;;;;;;11.20;46.80;;;;;;2375263;53;20070;-73
2022/05/02 02:13:14;;;;;;;;;;;11.20;46.80;;;;;;2379854;53;20120;-73
2022/05/02 02:15:40;;;;;;;;;;;11.20;46.90;;;;;;2375279;53;20117;-73
2022/05/02 02:18:06;;;;;;;;;;;11.20;46.90;;;;;;2491171;52;20069;-73
2022/05/02 02:20:34;;;;;;;;;;;11.20;46.90;;;;;;2380512;53;20078;-73
2022/05/02 02:23:00;;;;;;;;;;;11.10;46.90;;;;;;2377844;53;20433;-73
2022/05/02 02:25:27;;;;;;;;;;;11.10;46.90;;;;;;2509457;52;20105;-73
2022/05/02 02:27:53;;;;;;;;;;;11.10;47.00;;;;;;2375531;53;20077;-73
2022/05/02 02:30:19;;;;;;;;;;;11.10;47.10;;;;;;2376035;53;20077;-74
2022/05/02 02:32:46;;;;;;;;;;;11.10;47.10;;;;;;2342997;53;20351;-73
2022/05/02 02:35:13;;;;;;;;;;;11.10;47.40;;;;;;2361834;53;20827;-74
2022/05/02 02:37:40;;;;;;;;;;;11.00;47.10;;;;;;2368281;53;20357;-73
2022/05/02 02:40:09;;;;;;;;;;;11.00;47.10;;;;;;2369910;53;20130;-74
2022/05/02 02:42:36;;;;;;;;;;;11.00;47.20;;;;;;2375854;53;20355;-74
2022/05/02 02:45:02;;;;;;;;;;;11.00;47.20;;;;;;2378228;53;20066;-73
2022/05/02 02:47:30;;;;;;;;;;;11.00;47.20;;;;;;2351342;53;20389;-73
2022/05/02 02:49:56;;;;;;;;;;;11.00;47.20;;;;;;2357114;53;20140;-73
2022/05/02 02:52:22;;;;;;;;;;;10.90;47.20;;;;;;2629659;52;20074;-74
2022/05/02 02:55:13;;;;;;;;;;;10.90;47.20;;;;;;2375847;53;20109;-74
2022/05/02 02:57:39;;;;;;;;;;;10.90;47.20;;;;;;2375843;53;20323;-73
2022/05/02 03:03:27;;;;;;;;;;;10.80;47.20;;;;;;2344692;54;20139;-73
2022/05/02 03:06:02;;;;;;;;;;;10.80;47.20;;;;;;2375585;53;20090;-73
2022/05/02 03:08:29;;;;;;;;;;;10.80;47.20;;;;;;2376217;53;20125;-73
2022/05/02 03:10:56;;;;;;;;;;;10.80;47.30;;;;;;2359652;53;20157;-73
2022/05/02 03:13:23;;;;;;;;;;;10.70;47.20;;;;;;2488473;52;20537;-73
2022/05/02 03:15:51;;;;;;;;;;;10.70;47.20;;;;;;2376237;53;20117;-74
2022/05/02 03:18:19;;;;;;;;;;;10.70;47.20;;;;;;2376207;53;20073;-73
2022/05/02 03:20:46;;;;;;;;;;;10.70;47.30;;;;;;2382843;52;20062;-73
2022/05/02 03:23:12;;;;;;;;;;;10.60;47.20;;;;;;2375669;53;20421;-73
2022/05/02 03:25:38;;;;;;;;;;;10.60;47.30;;;;;;2376023;53;20166;-74
2022/05/02 03:28:05;;;;;;;;;;;10.60;47.30;;;;;;2377315;53;20122;-73
2022/05/02 03:30:31;;;;;;;;;;;10.60;47.40;;;;;;2376178;53;20580;-73
2022/05/02 03:32:58;;;;;;;;;;;10.50;47.30;;;;;;2426695;52;20414;-74
2022/05/02 03:35:26;;;;;;;;;;;10.50;47.40;;;;;;2406398;52;20069;-73
2022/05/02 03:37:52;;;;;;;;;;;10.50;47.40;;;;;;2423137;52;20079;-73
2022/05/02 03:40:19;;;;;;;;;;;10.50;47.40;;;;;;2543651;52;20170;-73
2022/05/02 03:42:45;;;;;;;;;;;10.50;47.40;;;;;;2375968;53;20118;-73
2022/05/02 03:45:14;;;;;;;;;;;10.40;47.30;;;;;;2354227;53;20338;-73
2022/05/02 03:47:40;;;;;;;;;;;10.40;47.40;;;;;;2375598;53;20086;-73
2022/05/02 03:50:08;;;;;;;;;;;10.40;47.40;;;;;;2373672;53;20645;-74
2022/05/02 03:52:34;;;;;;;;;;;10.40;47.40;;;;;;2370636;54;20085;-74
2022/05/02 03:55:01;;;;;;;;;;;10.30;47.40;;;;;;2372921;52;20172;-73
2022/05/02 03:57:27;;;;;;;;;;;10.30;47.50;;;;;;2372941;53;20585;-73
2022/05/02 03:59:54;;;;;;;;;;;10.30;47.50;;;;;;2449253;52;20077;-74
2022/05/02 04:02:21;;;;;;;;;;;10.30;47.50;;;;;;2379680;53;20116;-73
2022/05/02 04:04:47;;;;;;;;;;;10.30;47.50;;;;;;2382156;53;20094;-74
2022/05/02 04:07:13;;;;;;;;;;;10.30;47.50;;;;;;2478728;52;20129;-73
2022/05/02 04:09:39;;;;;;;;;;;10.20;47.50;;;;;;2377037;53;20059;-73
2022/05/02 04:12:06;;;;;;;;;;;10.20;47.50;;;;;;2379995;53;20173;-74
2022/05/02 04:14:33;;;;;;;;;;;10.20;47.60;;;;;;2379520;53;20137;-74
2022/05/02 04:16:59;;;;;;;;;;;10.20;47.60;;;;;;2374783;53;20069;-73
2022/05/02 04:19:25;;;;;;;;;;;10.20;47.60;;;;;;2440326;52;20723;-74
2022/05/02 04:21:53;;;;;;;;;;;10.20;47.60;;;;;;2379131;53;20074;-74
2022/05/02 04:24:25;;;;;;;;;;;10.10;47.50;;;;;;2374069;53;20145;-74
2022/05/02 04:26:51;;;;;;;;;;;10.10;47.60;;;;;;2373697;53;20096;-74
2022/05/02 04:29:18;;;;;;;;;;;10.10;47.60;;;;;;2412228;52;20078;-73
2022/05/02 04:31:44;;;;;;;;;;;10.10;47.60;;;;;;2419458;52;20567;-73
2022/05/02 04:34:10;;;;;;;;;;;10.10;47.70;;;;;;2420141;52;20157;-74
2022/05/02 04:36:38;;;;;;;;;;;10.10;47.70;;;;;;2382370;53;20182;-73
2022/05/02 04:39:04;;;;;;;;;;;10.10;47.80;;;;;;2462751;52;20089;-73
2022/05/02 04:41:31;;;;;;;;;;;10.10;47.80;;;;;;2381075;53;20082;-74
2022/05/02 04:43:57;;;;;;;;;;;10.10;47.80;;;;;;2374316;53;20444;-73
2022/05/02 04:46:24;;;;;;;;;;;10.00;47.80;;;;;;2378847;53;20089;-74
2022/05/02 04:48:50;;;;;;;;;;;10.00;48.40;;;;;;2375423;53;20664;-73
2022/05/02 04:51:16;;;;;;;;;;;10.00;47.90;;;;;;2417907;52;20616;-74
2022/05/02 04:53:43;;;;;;;;;;;10.00;48.00;;;;;;2379074;53;20077;-74
2022/05/02 04:56:09;;;;;;;;;;;10.00;48.00;;;;;;2375876;53;20134;-74
2022/05/02 04:58:35;;;;;;;;;;;10.00;48.00;;;;;;2406684;52;20077;-74
2022/05/02 05:01:04;;;;;;;;;;;10.00;48.10;;;;;;2375698;53;20185;-74
2022/05/02 05:03:30;;;;;;;;;;;10.00;48.10;;;;;;2382201;53;20105;-73
2022/05/02 05:05:56;;;;;;;;;;;10.10;48.20;;;;;;2381764;53;20122;-74
2022/05/02 05:08:23;;;;;;;;;;;10.10;48.30;;;;;;2480498;52;20218;-74
2022/05/02 05:10:59;;;;;;;;;;;10.10;48.40;;;;;;2565466;52;20499;-74
2022/05/02 05:13:27;;;;;;;;;;;10.10;48.50;;;;;;2376126;53;20069;-73
2022/05/02 05:17:45;;;;;;;;;;;10.20;48.70;;;;;;2574097;52;20121;-73
2022/05/02 05:20:30;;;;;;;;;;;10.20;48.70;;;;;;2398171;52;20074;-74
2022/05/02 05:26:05;;;;;;;;;;;10.20;48.80;;;;;;2375257;53;20082;-73
2022/05/02 05:28:41;;;;;;;;;;;10.30;48.90;;;;;;2376131;53;20169;-74
2022/05/02 05:31:14;;;;;;;;;;;10.40;49.00;;;;;;2375589;53;20173;-74
2022/05/02 05:34:26;;;;;;;;;;;10.40;49.00;;;;;;2379130;53;20142;-74
2022/05/02 05:43:41;;;;;;;;;;;10.40;49.00;;;;;;2379405;53;20117;-74
2022/05/02 05:46:26;;;;;;;;;;;10.50;49.10;;;;;;2375831;53;20122;-74
2022/05/02 05:52:24;;;;;;;;;;;10.70;49.40;;;;;;2375508;53;20058;-74
2022/05/02 05:55:04;;;;;;;;;;;10.70;49.50;;;;;;2375825;53;20061;-74
2022/05/02 05:57:42;;;;;;;;;;;10.90;49.80;;;;;;2384717;52;20414;-74
2022/05/02 06:00:12;;;;;;;;;;;10.90;49.90;;;;;;2374991;53;20436;-74
2022/05/02 06:02:56;;;;;;;;;;;11.00;50.00;;;;;;2375843;53;20132;-74
2022/05/02 06:05:23;;;;;;;;;;;11.00;50.10;;;;;;2375972;53;20122;-74
2022/05/02 06:07:50;;;;;;;;;;;11.20;50.20;;;;;;2533798;52;20133;-74
2022/05/02 06:10:16;;;;;;;;;;;11.20;50.10;;;;;;2444124;52;20122;-74
2022/05/02 06:12:43;;;;;;;;;;;11.30;50.10;;;;;;2375530;53;20077;-74
2022/05/02 06:20:45;;;;;;;;;;;11.50;50.30;;;;;;2377053;53;20082;-74
2022/05/02 06:23:13;;;;;;;;;;;11.60;50.30;;;;;;2375395;53;20070;-74
2022/05/02 06:25:41;;;;;;;;;;;11.60;50.30;;;;;;2378652;53;20137;-74
2022/05/02 06:28:07;;;;;;;;;;;11.70;50.40;;;;;;2461748;52;20066;-74
2022/05/02 06:30:39;;;;;;;;;;;11.90;50.50;;;;;;2380100;53;20077;-74
2022/05/02 06:33:10;;;;;;;;;;;11.90;50.40;;;;;;2376505;53;20370;-74
2022/05/02 06:35:38;;;;;;;;;;;12.00;50.50;;;;;;2466452;52;20081;-74
2022/05/02 06:38:14;;;;;;;;;;;12.00;50.60;;;;;;2381229;53;20391;-74
2022/05/02 06:40:49;;;;;;;;;;;12.10;50.60;;;;;;2377404;53;20515;-74
2022/05/02 06:43:26;;;;;;;;;;;12.20;50.70;;;;;;2383057;52;20141;-74
2022/05/02 06:46:05;;;;;;;;;;;12.30;50.80;;;;;;2377743;53;20180;-74
2022/05/02 06:48:34;;;;;;;;;;;12.40;50.80;;;;;;2384147;52;20153;-74
2022/05/02 06:51:09;;;;;;;;;;;12.50;50.90;;;;;;2375529;53;20081;-74
2022/05/02 06:53:42;;;;;;;;;;;12.60;51.40;;;;;;2378248;53;20106;-74
2022/05/02 06:56:09;;;;;;;;;;;12.70;51.10;;;;;;2478874;52;20133;-75
2022/05/02 06:58:59;;;;;;;;;;;12.80;51.20;;;;;;2375892;53;20082;-74
2022/05/02 07:02:56;;;;;;;;;;;13.00;51.70;;;;;;2376625;53;20073;-74
2022/05/02 07:05:27;;;;;;;;;;;13.20;52.10;;;;;;2375592;53;20085;-74
2022/05/02 07:08:03;;;;;;;;;;;13.70;52.70;;;;;;2375516;53;20073;-75
2022/05/02 07:10:36;;;;;;;;;;;14.00;52.90;;;;;;2537047;52;20682;-74
2022/05/02 07:14:40;;;;;;;;;;;14.40;53.10;;;;;;2391079;52;20081;-74
2022/05/02 07:17:12;;;;;;;;;;;14.70;53.20;;;;;;2370374;53;20137;-74
2022/05/02 07:19:48;;;;;;;;;;;15.20;53.50;;;;;;2589059;52;20747;-76
2022/05/02 07:22:18;;;;;;;;;;;15.60;53.60;;;;;;2379351;53;20073;-74
2022/05/02 07:28:18;;;;;;;;;;;16.00;53.70;;;;;;2364695;53;20057;-76
2022/05/02 07:30:46;;;;;;;;;;;16.30;53.60;;;;;;2350799;53;20109;-74
2022/05/02 07:33:12;;;;;;;;;;;16.90;53.10;;;;;;2452256;52;20082;-76
2022/05/02 07:35:39;;;;;;;;;;;17.10;53.00;;;;;;2512941;52;20553;-76
2022/05/02 07:38:06;;;;;;;;;;;17.40;53.00;;;;;;2348512;54;20107;-75
2022/05/02 07:40:33;;;;;;;;;;;17.70;53.10;;;;;;2347208;54;20473;-74
2022/05/02 07:42:59;;;;;;;;;;;18.00;53.30;;;;;;2386028;53;20434;-74
2022/05/02 07:45:29;;;;;;;;;;;18.30;53.40;;;;;;2347304;54;20183;-74
2022/05/02 07:48:00;;;;;;;;;;;18.50;53.10;;;;;;2362834;52;20129;-74
2022/05/02 07:50:27;;;;;;;;;;;18.80;52.90;;;;;;2357640;53;20086;-75
2022/05/02 07:52:55;;;;;;;;;;;19.00;52.60;;;;;;2372840;53;20302;-75
2022/05/02 07:55:22;;;;;;;;;;;19.20;52.20;;;;;;2347776;54;20067;-75
2022/05/02 07:57:51;;;;;;;;;;;19.20;51.80;;;;;;2406435;53;20114;-75
2022/05/02 08:00:19;;;;;;;;;;;19.30;51.30;;;;;;2352044;53;20657;-75
2022/05/02 08:02:45;;;;;;;;;;;19.30;50.90;;;;;;2376424;53;20081;-73
2022/05/02 08:05:14;;;;;;;;;;;19.20;50.50;;;;;;2375341;53;20077;-75
2022/05/02 08:07:44;;;;;;;;;;;19.20;50.30;;;;;;2387576;52;20106;-77
2022/05/02 08:10:29;;;;;;;;;;;19.10;50.10;;;;;;2375018;53;20134;-75
2022/05/02 08:12:56;;;;;;;;;;;19.10;50.00;;;;;;2375186;53;20682;-77
2022/05/02 08:15:33;;;;;;;;;;;19.00;49.80;;;;;;2486372;52;20224;-75
2022/05/02 08:18:18;;;;;;;;;;;19.00;50.50;;;;;;2374288;52;20177;-75
2022/05/02 08:21:03;;;;;;;;;;;18.90;50.00;;;;;;2428148;52;20185;-74
2022/05/02 08:28:32;;;;;;;;;;;18.90;50.00;;;;;;2378294;52;20082;-75
2022/05/02 08:31:01;;;;;;;;;;;19.00;50.30;;;;;;2386533;52;20090;-76
2022/05/02 08:33:28;;;;;;;;;;;19.10;50.60;;;;;;2356792;53;20596;-77
2022/05/02 08:36:00;;;;;;;;;;;19.30;50.90;;;;;;2375566;53;20073;-75
2022/05/02 08:41:03;;;;;;;;;;;19.60;51.40;;;;;;2582442;52;20065;-75
2022/05/02 08:43:51;;;;;;;;;;;19.80;51.60;;;;;;2421655;52;20077;-74
2022/05/02 08:46:28;;;;;;;;;;;20.30;51.60;;;;;;2373522;53;20484;-76
2022/05/02 08:58:46;;;;;;;;;;;20.70;50.90;;;;;;2378799;53;20431;-75
2022/05/02 09:01:31;;;;;;;;;;;20.70;50.50;;;;;;2374917;53;20073;-75
2022/05/02 09:04:21;;;;;;;;;;;21.00;50.40;;;;;;2375013;53;20125;-76
2022/05/02 09:10:20;;;;;;;;;;;21.00;50.30;;;;;;2375189;53;20319;-76
2022/05/02 09:19:35;;;;;;;;;;;21.20;50.50;;;;;;2378039;52;20070;-75
2022/05/02 09:22:25;;;;;;;;;;;21.40;50.50;;;;;;2374280;52;20073;-75
2022/05/02 09:24:57;;;;;;;;;;;21.80;50.40;;;;;;2375112;53;20066;-75
2022/05/02 09:29:15;;;;;;;;;;;21.90;50.30;;;;;;2432202;52;20350;-76
2022/05/02 09:32:00;;;;;;;;;;;22.10;50.10;;;;;;2375257;53;20097;-76
2022/05/02 09:34:38;;;;;;;;;;;22.20;49.60;;;;;;2406796;52;20112;-75
2022/05/02 09:37:26;;;;;;;;;;;22.20;49.30;;;;;;2376139;53;20073;-77
2022/05/02 09:39:52;;;;;;;;;;;22.20;49.00;;;;;;2415097;52;20066;-75
2022/05/02 09:42:39;;;;;;;;;;;22.20;48.80;;;;;;2376531;53;20093;-75
2022/05/02 09:50:28;;;;;;;;;;;22.20;48.60;;;;;;2375930;53;20078;-75
2022/05/02 09:58:30;;;;;;;;;;;22.40;49.10;;;;;;2374194;53;20381;-76
2022/05/02 10:01:06;;;;;;;;;;;22.50;48.90;;;;;;2374698;52;20190;-75
2022/05/02 10:04:12;;;;;;;;;;;22.50;48.70;;;;;;2385719;52;20557;-75
2022/05/02 10:06:42;;;;;;;;;;;22.60;48.50;;;;;;2375725;53;20622;-76
2022/05/02 10:11:00;;;;;;;;;;;22.60;48.30;;;;;;2411781;52;20110;-79
2022/05/02 10:13:37;;;;;;;;;;;22.70;48.10;;;;;;2375730;53;20484;-76
2022/05/02 10:16:39;;;;;;;;;;;22.70;48.00;;;;;;2375429;53;20137;-79
2022/05/02 10:19:22;;;;;;;;;;;22.80;48.00;;;;;;2577378;52;20137;-76
2022/05/02 10:22:34;;;;;;;;;;;22.80;47.80;;;;;;2352059;53;20125;-75
2022/05/02 10:25:04;;;;;;;;;;;22.80;47.70;;;;;;2374817;53;20061;-75
2022/05/02 10:27:50;;;;;;;;;;;22.90;47.60;;;;;;2412932;52;20077;-74
2022/05/02 10:30:18;;;;;;;;;;;22.90;47.50;;;;;;2374863;53;20125;-73
2022/05/02 10:32:56;;;;;;;;;;;22.90;47.40;;;;;;2489075;52;20166;-78
2022/05/02 10:35:24;;;;;;;;;;;22.90;47.20;;;;;;2371781;52;20078;-74
2022/05/02 10:38:03;;;;;;;;;;;23.00;47.40;;;;;;2374886;53;20081;-77
2022/05/02 10:40:38;;;;;;;;;;;23.10;47.40;;;;;;2616807;52;20081;-75
2022/05/02 10:43:06;;;;;;;;;;;23.10;47.40;;;;;;2607224;52;20074;-77
2022/05/02 10:45:32;;;;;;;;;;;23.20;47.50;;;;;;2375265;53;20424;-75
2022/05/02 10:48:46;;;;;;;;;;;23.20;47.40;;;;;;2375103;53;20133;-75
2022/05/02 10:51:15;;;;;;;;;;;23.30;47.40;;;;;;2375369;53;20618;-75
2022/05/02 10:53:51;;;;;;;;;;;23.40;47.50;;;;;;2388219;52;20074;-75
2022/05/02 11:03:06;;;;;;;;;;;23.50;47.50;;;;;;2383851;52;20406;-77
2022/05/02 11:05:43;;;;;;;;;;;23.60;47.60;;;;;;2376333;52;20085;-76
2022/05/02 11:08:20;;;;;;;;;;;24.10;47.80;;;;;;2372533;52;20081;-78
2022/05/02 11:10:47;;;;;;;;;;;24.20;47.70;;;;;;2374808;53;20145;-75
2022/05/02 11:14:48;;;;;;;;;;;24.30;47.50;;;;;;2375648;53;20069;-76
2022/05/02 11:17:25;;;;;;;;;;;24.40;47.20;;;;;;2374674;53;20070;-76
2022/05/02 11:21:43;;;;;;;;;;;24.50;46.50;;;;;;2371881;53;20133;-76
2022/05/02 11:24:46;;;;;;;;;;;24.50;46.40;;;;;;2375849;53;20149;-76
2022/05/02 11:27:19;;;;;;;;;;;24.50;45.90;;;;;;2375134;53;20046;-77
2022/05/02 11:30:07;;;;;;;;;;;24.50;45.70;;;;;;2379453;53;20315;-75
2022/05/02 11:34:04;;;;;;;;;;;24.50;45.70;;;;;;2524543;52;20061;-74
2022/05/02 11:36:32;;;;;;;;;;;24.60;45.70;;;;;;2379722;52;20137;-75
2022/05/02 11:39:05;;;;;;;;;;;24.60;45.90;;;;;;2522608;52;20089;-72
2022/05/02 11:41:32;;;;;;;;;;;24.60;45.60;;;;;;2427642;52;20122;-76
2022/05/02 11:44:06;;;;;;;;;;;24.70;45.50;;;;;;2352104;53;20078;-74
2022/05/02 11:46:33;;;;;;;;;;;24.70;45.70;;;;;;2377800;53;20074;-75
2022/05/02 11:49:03;;;;;;;;;;;24.80;45.90;;;;;;2584757;52;20073;-73
2022/05/02 11:51:50;;;;;;;;;;;24.90;45.60;;;;;;2523104;52;20085;-74
2022/05/02 11:54:50;;;;;;;;;;;25.00;45.70;;;;;;2377204;53;20086;-74
2022/05/02 11:57:25;;;;;;;;;;;25.10;45.90;;;;;;2624749;52;20129;-75
2022/05/02 12:00:24;;;;;;;;;;;25.20;45.70;;;;;;2375713;52;20101;-76
2022/05/02 12:02:53;;;;;;;;;;;25.30;45.60;;;;;;2453403;52;20070;-72
2022/05/02 12:05:23;;;;;;;;;;;25.40;45.30;;;;;;2380208;53;20074;-76
2022/05/02 12:08:06;;;;;;;;;;;25.50;45.10;;;;;;2373249;52;20061;-74
2022/05/02 12:10:47;;;;;;;;;;;25.50;44.90;;;;;;2477748;52;20169;-73
2022/05/02 12:13:14;;;;;;;;;;;25.50;44.50;;;;;;2376936;53;20158;-76
2022/05/02 12:15:53;;;;;;;;;;;25.60;44.80;;;;;;2377113;53;20070;-77
2022/05/02 12:18:19;;;;;;;;;;;25.60;44.30;;;;;;2376564;53;20105;-74
2022/05/02 12:20:47;;;;;;;;;;;25.60;44.00;;;;;;2378287;52;20397;-75
2022/05/02 12:26:18;;;;;;;;;;;25.60;44.00;;;;;;2377365;53;20080;-77
2022/05/02 12:28:51;;;;;;;;;;;25.60;43.90;;;;;;2376972;53;20046;-74
2022/05/02 12:31:26;;;;;;;;;;;25.60;43.70;;;;;;2457938;52;20128;-74
2022/05/02 12:34:05;;;;;;;;;;;25.60;43.90;;;;;;2376480;53;20109;-74
2022/05/02 12:36:35;;;;;;;;;;;25.60;43.80;;;;;;2353536;53;20661;-74
2022/05/02 12:39:02;;;;;;;;;;;25.70;43.80;;;;;;2376054;53;20157;-76
2022/05/02 12:41:29;;;;;;;;;;;25.70;44.10;;;;;;2376882;53;20732;-73
2022/05/02 12:44:04;;;;;;;;;;;25.80;43.80;;;;;;2377320;53;20188;-74
2022/05/02 12:46:33;;;;;;;;;;;25.80;43.60;;;;;;2377399;53;20081;-73
2022/05/02 12:49:04;;;;;;;;;;;25.80;43.40;;;;;;2377906;53;20091;-74
2022/05/02 12:51:31;;;;;;;;;;;25.80;43.30;;;;;;2377204;53;20101;-78
2022/05/02 12:54:13;;;;;;;;;;;25.80;43.10;;;;;;2508064;52;20102;-74
2022/05/02 13:02:35;;;;;;;;;;;25.90;43.20;;;;;;2376977;53;20070;-74
2022/05/02 13:05:06;;;;;;;;;;;26.00;43.30;;;;;;2438339;52;20166;-74
2022/05/02 13:07:44;;;;;;;;;;;26.00;43.20;;;;;;2376419;52;20379;-74
2022/05/02 13:10:43;;;;;;;;;;;26.00;42.90;;;;;;2377170;53;20130;-76
2022/05/02 13:13:10;;;;;;;;;;;26.10;42.80;;;;;;2452921;53;20129;-74
2022/05/02 13:15:47;;;;;;;;;;;26.10;42.50;;;;;;2376144;52;20378;-74
2022/05/02 13:18:21;;;;;;;;;;;26.10;42.60;;;;;;2373339;53;20077;-75
2022/05/02 13:20:57;;;;;;;;;;;26.20;42.40;;;;;;2505642;52;20125;-74
2022/05/02 13:23:25;;;;;;;;;;;26.20;42.60;;;;;;2376299;53;20062;-74
2022/05/02 13:26:04;;;;;;;;;;;26.20;42.70;;;;;;2377145;53;20074;-76
2022/05/02 13:28:43;;;;;;;;;;;26.30;42.50;;;;;;2406619;52;20070;-74
2022/05/02 13:31:45;;;;;;;;;;;26.30;42.20;;;;;;2376042;53;20121;-73
2022/05/02 13:34:29;;;;;;;;;;;26.20;41.90;;;;;;2377597;53;20185;-73
2022/05/02 13:37:10;;;;;;;;;;;26.20;41.90;;;;;;2381828;53;20086;-73
2022/05/02 13:39:55;;;;;;;;;;;26.20;41.90;;;;;;2373619;52;20184;-73
2022/05/02 13:42:40;;;;;;;;;;;26.30;42.00;;;;;;2378187;53;20133;-73
2022/05/02 13:45:25;;;;;;;;;;;26.30;41.90;;;;;;2376872;53;20078;-74
2022/05/02 13:47:53;;;;;;;;;;;26.30;41.60;;;;;;2385328;52;20088;-73
2022/05/02 13:50:21;;;;;;;;;;;26.30;41.50;;;;;;2377049;52;20082;-73
2022/05/02 13:53:03;;;;;;;;;;;26.30;41.60;;;;;;2442529;52;20338;-73
2022/05/02 13:58:57;;;;;;;;;;;26.30;41.30;;;;;;2376667;53;20106;-73
2022/05/02 14:01:45;;;;;;;;;;;26.30;42.10;;;;;;2377386;53;20077;-73
2022/05/02 14:04:19;;;;;;;;;;;26.30;41.00;;;;;;2377431;53;20065;-73
2022/05/02 14:07:00;;;;;;;;;;;26.30;41.00;;;;;;2377666;53;20062;-74
2022/05/02 14:10:09;;;;;;;;;;;26.30;40.80;;;;;;2377182;53;20058;-78
2022/05/02 14:12:38;;;;;;;;;;;26.30;41.00;;;;;;2377430;53;20362;-76
2022/05/02 14:15:06;;;;;;;;;;;26.30;40.90;;;;;;2377491;53;20129;-74
2022/05/02 14:17:53;;;;;;;;;;;26.30;40.70;;;;;;2379327;52;20398;-76
2022/05/02 14:20:23;;;;;;;;;;;26.30;40.70;;;;;;2576711;52;20579;-74
2022/05/02 14:22:53;;;;;;;;;;;26.30;40.60;;;;;;2377256;52;20107;-75
2022/05/02 14:25:25;;;;;;;;;;;26.30;40.50;;;;;;2515186;52;20302;-76
2022/05/02 14:27:55;;;;;;;;;;;26.30;40.40;;;;;;2412763;52;20074;-76
2022/05/02 14:30:26;;;;;;;;;;;26.30;40.50;;;;;;2377574;53;20423;-72
2022/05/02 14:32:52;;;;;;;;;;;26.20;40.30;;;;;;2599652;52;20177;-75
2022/05/02 14:35:25;;;;;;;;;;;26.20;40.30;;;;;;2378590;52;20078;-73
2022/05/02 14:37:52;;;;;;;;;;;26.20;40.10;;;;;;2378320;52;20090;-73
2022/05/02 14:40:18;;;;;;;;;;;26.20;40.40;;;;;;2353501;53;20090;-75
2022/05/02 14:42:44;;;;;;;;;;;26.30;40.60;;;;;;2435420;52;20073;-72
2022/05/02 14:45:13;;;;;;;;;;;26.30;40.50;;;;;;2392531;52;20062;-73
2022/05/02 14:47:42;;;;;;;;;;;26.30;40.40;;;;;;2373339;52;20085;-73
2022/05/02 14:50:09;;;;;;;;;;;26.30;40.30;;;;;;2380340;53;20078;-76
2022/05/02 14:52:36;;;;;;;;;;;26.40;40.10;;;;;;2553459;52;20078;-73
2022/05/02 14:55:06;;;;;;;;;;;26.30;40.10;;;;;;2378737;53;20085;-73
2022/05/02 14:57:32;;;;;;;;;;;26.30;40.00;;;;;;2410728;52;20114;-73
2022/05/02 15:00:12;;;;;;;;;;;26.40;40.20;;;;;;2383937;52;20716;-73
2022/05/02 15:02:38;;;;;;;;;;;26.40;40.10;;;;;;2377382;53;20090;-75
2022/05/02 15:05:07;;;;;;;;;;;26.40;39.90;;;;;;2383065;53;20089;-73
2022/05/02 15:07:51;;;;;;;;;;;26.30;39.80;;;;;;2372715;53;20141;-73
2022/05/02 15:10:25;;;;;;;;;;;26.30;39.60;;;;;;2376688;53;20085;-73
2022/05/02 15:13:14;;;;;;;;;;;26.30;39.80;;;;;;2421998;52;20213;-73
2022/05/02 15:16:24;;;;;;;;;;;26.20;39.80;;;;;;2380883;53;20592;-73
2022/05/02 15:22:23;;;;;;;;;;;26.20;39.70;;;;;;2376582;52;20129;-73
2022/05/02 15:24:59;;;;;;;;;;;26.10;39.60;;;;;;2377372;52;20354;-73
2022/05/02 15:38:50;;;;;;;;;;;25.80;39.30;;;;;;2466075;52;20078;-73
2022/05/02 15:41:19;;;;;;;;;;;25.70;39.00;;;;;;2369371;53;20125;-73
2022/05/02 15:43:51;;;;;;;;;;;25.60;39.00;;;;;;2377360;53;20137;-77
2022/05/02 15:46:20;;;;;;;;;;;25.50;39.00;;;;;;2381227;53;20109;-76
2022/05/02 15:48:49;;;;;;;;;;;25.50;39.10;;;;;;2372537;52;20077;-74
2022/05/02 15:51:24;;;;;;;;;;;25.40;39.60;;;;;;2559442;52;20074;-73
2022/05/02 15:54:17;;;;;;;;;;;25.30;39.00;;;;;;2377406;52;20039;-73
2022/05/02 16:00:15;;;;;;;;;;;25.20;39.10;;;;;;2398025;52;20536;-76
2022/05/02 16:02:42;;;;;;;;;;;25.10;39.20;;;;;;2562325;52;20062;-73
2022/05/02 16:05:11;;;;;;;;;;;25.00;39.20;;;;;;2376663;53;20113;-73
2022/05/02 16:10:36;;;;;;;;;;;24.90;39.20;;;;;;2581027;52;20105;-75
2022/05/02 16:13:02;;;;;;;;;;;24.80;39.10;;;;;;2382307;52;20113;-74
2022/05/02 16:18:11;;;;;;;;;;;24.80;39.10;;;;;;2315915;54;20092;-72
2022/05/02 16:20:38;;;;;;;;;;;24.70;39.10;;;;;;2295433;54;20329;-76
2022/05/02 16:23:13;;;;;;;;;;;24.60;39.00;;;;;;2315776;54;20163;-72
2022/05/02 16:25:42;;;;;;;;;;;24.60;39.70;;;;;;2519078;54;20108;-73
2022/05/02 16:28:15;;;;;;;;;;;24.50;39.00;;;;;;2308872;54;20104;-73
2022/05/02 16:30:44;;;;;;;;;;;24.40;39.10;;;;;;2362333;53;20669;-75
2022/05/02 16:33:25;;;;;;;;;;;24.40;39.00;;;;;;2322350;54;20761;-75
2022/05/02 16:35:52;;;;;;;;;;;24.30;38.90;;;;;;2334552;52;20687;-73
2022/05/02 16:38:31;;;;;;;;;;;24.30;38.90;;;;;;2391239;53;20064;-73
2022/05/02 16:40:57;;;;;;;;;;;24.20;38.90;;;;;;2308851;54;20132;-72
2022/05/02 16:43:24;;;;;;;;;;;24.20;39.00;;;;;;2318802;54;20579;-75
2022/05/02 16:45:50;;;;;;;;;;;24.20;39.00;;;;;;2333475;54;20063;-73
2022/05/02 16:48:17;;;;;;;;;;;24.10;39.00;;;;;;2313787;54;20132;-76